Time;durP1;ratioP1;P1;durP2;ratioP2;P2;SDS_P1;SDS_P2;PMS_P1;PMS_P2;Temp;Humidity;BMP_temperature;BMP_pressure;BME280_temperature;BME280_humidity;BME280_pressure;Samples;Min_cycle;Max_cycle;Signal;HPM_P1;HPM_P2
2022/07/08 00:02:22;;;;;;;13.13;1.83;;;14.30;99.90;;;;;;4960653;28;20397;-76
2022/07/08 00:04:48;;;;;;;11.43;1.80;;;14.20;99.90;;;;;;4994206;28;20050;-75
2022/07/08 00:07:14;;;;;;;13.20;2.13;;;14.10;99.90;;;;;;4994051;28;20042;-75
2022/07/08 00:09:39;;;;;;;9.10;1.20;;;14.40;99.90;;;;;;4976133;28;20077;-75
2022/07/08 00:12:05;;;;;;;7.43;1.45;;;14.00;99.90;;;;;;4993938;28;20053;-75
2022/07/08 00:14:31;;;;;;;13.93;1.33;;;13.90;99.90;;;;;;4994152;28;20046;-75
2022/07/08 00:16:56;;;;;;;14.95;1.70;;;14.00;99.90;;;;;;4993741;28;20042;-73
2022/07/08 00:19:22;;;;;;;15.57;1.58;;;13.80;99.90;;;;;;4993743;28;20038;-74
2022/07/08 00:21:51;;;;;;;10.27;1.40;;;13.80;99.90;;;;;;4993811;28;20043;-74
2022/07/08 00:24:17;;;;;;;8.43;1.42;;;13.80;99.90;;;;;;4993622;28;20556;-75
2022/07/08 00:26:43;;;;;;;13.75;1.67;;;13.80;99.90;;;;;;4993574;28;20038;-75
2022/07/08 00:29:10;;;;;;;7.10;1.67;;;13.80;99.90;;;;;;4993534;28;20052;-76
2022/07/08 00:31:36;;;;;;;8.65;1.77;;;13.70;99.90;;;;;;4993319;28;20073;-75
2022/07/08 00:34:02;;;;;;;10.63;1.75;;;13.70;99.90;;;;;;4993774;28;20050;-75
2022/07/08 00:36:27;;;;;;;12.38;2.65;;;13.70;99.90;;;;;;4993149;28;20057;-75
2022/07/08 00:38:54;;;;;;;11.65;1.67;;;13.70;99.90;;;;;;4993556;28;20043;-74
2022/07/08 00:41:21;;;;;;;6.55;1.30;;;14.00;99.90;;;;;;4975590;28;20514;-75
2022/07/08 00:43:47;;;;;;;13.50;1.63;;;13.70;99.90;;;;;;4993392;28;20046;-75
2022/07/08 00:46:15;;;;;;;12.90;1.42;;;13.70;99.90;;;;;;4993033;28;20050;-75
2022/07/08 00:48:42;;;;;;;9.70;1.80;;;13.70;99.90;;;;;;4993151;28;20130;-74
2022/07/08 00:51:13;;;;;;;12.15;1.70;;;13.70;99.90;;;;;;4993028;28;20066;-75
2022/07/08 00:53:41;;;;;;;13.40;1.40;;;13.70;99.90;;;;;;4992860;28;20046;-75
2022/07/08 00:56:09;;;;;;;8.57;1.23;;;13.70;99.90;;;;;;4992959;28;20100;-75
2022/07/08 00:58:36;;;;;;;10.75;1.40;;;13.90;99.90;;;;;;4975252;28;20058;-74
2022/07/08 01:01:02;;;;;;;13.13;1.35;;;13.70;99.90;;;;;;4993327;28;20057;-75
2022/07/08 01:03:27;;;;;;;13.15;1.33;;;13.70;99.90;;;;;;4992292;28;20050;-74
2022/07/08 01:05:53;;;;;;;9.27;1.55;;;13.70;99.90;;;;;;4992906;28;20557;-76
2022/07/08 01:08:19;;;;;;;8.35;1.40;;;13.60;99.90;;;;;;4993226;28;20162;-75
2022/07/08 01:10:46;;;;;;;11.23;1.42;;;13.50;99.90;;;;;;4992593;28;20572;-75
2022/07/08 01:13:12;;;;;;;5.00;1.00;;;13.50;99.90;;;;;;4975297;28;20833;-75
2022/07/08 01:15:37;;;;;;;13.00;2.03;;;13.50;99.90;;;;;;4992730;28;20046;-75
2022/07/08 01:18:03;;;;;;;9.68;1.67;;;13.30;99.90;;;;;;4992522;28;20128;-76
2022/07/08 01:20:33;;;;;;;11.15;1.45;;;13.30;99.90;;;;;;4992451;28;20046;-75
2022/07/08 01:23:00;;;;;;;5.78;1.30;;;13.50;99.90;;;;;;4992623;28;20053;-75
2022/07/08 01:25:26;;;;;;;10.35;1.77;;;13.20;99.90;;;;;;4992384;28;20060;-75
2022/07/08 01:27:52;;;;;;;11.15;1.50;;;13.10;99.90;;;;;;4992686;28;20046;-74
2022/07/08 01:30:18;;;;;;;8.25;1.30;;;13.30;99.90;;;;;;4992577;28;20505;-76
2022/07/08 01:32:45;;;;;;;12.52;1.83;;;13.00;99.90;;;;;;4991800;28;20050;-76
2022/07/08 01:35:11;;;;;;;8.02;1.40;;;12.90;99.90;;;;;;4975267;28;20047;-75
2022/07/08 01:37:36;;;;;;;8.05;1.80;;;12.90;99.90;;;;;;4992268;28;20065;-76
2022/07/08 01:40:02;;;;;;;10.20;1.45;;;12.90;99.90;;;;;;4992275;28;20729;-76
2022/07/08 01:42:28;;;;;;;11.13;1.60;;;12.70;99.90;;;;;;4992232;28;20050;-76
2022/07/08 01:44:54;;;;;;;10.27;1.45;;;12.80;99.90;;;;;;4992328;28;20128;-76
2022/07/08 01:47:19;;;;;;;10.60;1.98;;;12.60;99.90;;;;;;4992350;28;20042;-75
2022/07/08 01:49:46;;;;;;;8.10;1.38;;;12.70;99.90;;;;;;4991766;28;20089;-75
2022/07/08 01:52:12;;;;;;;7.82;2.13;;;12.70;99.90;;;;;;4991588;28;20497;-75
2022/07/08 01:54:38;;;;;;;11.02;1.60;;;12.70;99.90;;;;;;4974491;28;20059;-75
2022/07/08 01:57:16;;;;;;;12.32;2.20;;;12.60;99.90;;;;;;4974962;28;20054;-75
2022/07/08 01:59:43;;;;;;;10.18;1.58;;;12.60;99.90;;;;;;4974258;28;20042;-75
2022/07/08 02:02:10;;;;;;;8.85;1.63;;;12.60;99.90;;;;;;4973884;28;20046;-74
2022/07/08 02:04:35;;;;;;;8.13;1.52;;;12.60;99.90;;;;;;4991601;28;20050;-74
2022/07/08 02:07:01;;;;;;;12.95;1.50;;;12.60;99.90;;;;;;4991823;28;20548;-74
2022/07/08 02:09:27;;;;;;;9.90;1.50;;;12.60;99.90;;;;;;4991042;28;20379;-74
2022/07/08 02:14:37;;;;;;;5.75;1.52;;;12.60;99.90;;;;;;4990809;28;20038;-75
2022/07/08 02:17:03;;;;;;;9.77;1.77;;;12.50;99.90;;;;;;4991735;28;20042;-74
2022/07/08 02:19:30;;;;;;;7.53;1.33;;;12.50;99.90;;;;;;4990476;28;20133;-75
2022/07/08 02:21:55;;;;;;;9.93;2.00;;;12.40;99.90;;;;;;4991131;28;20046;-75
2022/07/08 02:24:21;;;;;;;12.23;1.70;;;12.40;99.90;;;;;;4991564;28;20052;-74
2022/07/08 02:26:47;;;;;;;10.13;1.40;;;12.30;99.90;;;;;;4990947;28;20046;-73
2022/07/08 02:29:13;;;;;;;9.82;1.55;;;12.20;99.90;;;;;;4991053;28;20046;-75
2022/07/08 02:31:39;;;;;;;13.88;1.70;;;12.10;99.90;;;;;;4991280;28;20057;-75
2022/07/08 02:34:05;;;;;;;12.55;1.58;;;12.10;99.90;;;;;;4991229;28;20058;-75
2022/07/08 02:36:31;;;;;;;12.95;1.35;;;12.10;99.90;;;;;;4990948;28;20768;-75
2022/07/08 02:38:56;;;;;;;10.13;1.92;;;12.00;99.90;;;;;;4991174;28;20046;-75
2022/07/08 02:41:22;;;;;;;12.95;2.45;;;12.00;99.90;;;;;;4991046;28;20050;-76
2022/07/08 02:43:47;;;;;;;10.15;1.77;;;12.20;99.90;;;;;;4990431;28;20089;-75
2022/07/08 02:46:13;;;;;;;10.10;1.58;;;12.10;99.90;;;;;;4991070;28;20046;-75
2022/07/08 02:48:39;;;;;;;15.13;1.88;;;11.90;99.90;;;;;;4991198;28;20046;-75
2022/07/08 02:51:05;;;;;;;10.13;2.40;;;11.90;99.90;;;;;;4990807;28;20066;-76
2022/07/08 02:53:31;;;;;;;8.73;1.63;;;12.00;99.90;;;;;;4973366;28;20112;-74
2022/07/08 02:55:57;;;;;;;10.85;1.60;;;11.80;99.90;;;;;;4973542;28;20057;-74
2022/07/08 02:58:22;;;;;;;15.43;1.83;;;11.80;99.90;;;;;;4990816;28;20061;-74
2022/07/08 03:00:48;;;;;;;7.28;1.50;;;11.70;99.90;;;;;;4990783;28;20046;-75
2022/07/08 03:03:14;;;;;;;8.43;1.83;;;11.70;99.90;;;;;;4990930;28;20720;-75
2022/07/08 03:05:39;;;;;;;10.80;1.63;;;11.60;99.90;;;;;;4973218;28;20133;-75
2022/07/08 03:08:06;;;;;;;8.98;1.20;;;11.60;99.90;;;;;;4990174;28;20081;-75
2022/07/08 03:10:32;;;;;;;11.80;1.80;;;11.80;99.90;;;;;;4990779;28;20038;-74
2022/07/08 03:12:58;;;;;;;9.13;1.42;;;11.60;99.90;;;;;;4990590;28;20421;-74
2022/07/08 03:15:25;;;;;;;10.07;1.58;;;11.50;99.90;;;;;;4990724;28;20064;-75
2022/07/08 03:17:51;;;;;;;6.95;1.52;;;11.60;99.90;;;;;;4990860;28;20122;-73
2022/07/08 03:20:18;;;;;;;8.13;1.80;;;11.50;99.90;;;;;;4990314;28;20042;-75
2022/07/08 03:22:44;;;;;;;7.00;1.58;;;11.50;99.90;;;;;;4990024;28;20053;-75
2022/07/08 03:25:10;;;;;;;10.40;1.90;;;11.40;99.90;;;;;;4990198;28;20039;-75
2022/07/08 03:27:36;;;;;;;8.13;1.60;;;11.40;99.90;;;;;;4990336;28;20053;-74
2022/07/08 03:30:02;;;;;;;13.30;2.30;;;11.40;99.90;;;;;;4990209;28;20051;-74
2022/07/08 03:32:28;;;;;;;9.15;1.60;;;11.30;99.90;;;;;;4973025;28;20046;-75
2022/07/08 03:34:54;;;;;;;5.70;1.80;;;11.40;99.90;;;;;;4990240;28;20588;-74
2022/07/08 03:37:20;;;;;;;13.70;1.50;;;11.30;99.90;;;;;;4972929;28;20038;-75
2022/07/08 03:39:46;;;;;;;8.27;1.30;;;11.30;99.90;;;;;;4989957;28;20405;-74
2022/07/08 03:42:12;;;;;;;10.20;1.75;;;11.30;99.90;;;;;;4990718;28;20413;-74
2022/07/08 03:44:38;;;;;;;11.32;1.60;;;11.40;99.90;;;;;;4990548;28;20096;-74
2022/07/08 03:47:04;;;;;;;9.38;1.80;;;11.30;99.90;;;;;;4990477;28;20049;-75
2022/07/08 03:49:29;;;;;;;10.68;2.40;;;11.30;99.90;;;;;;4990454;28;20058;-75
2022/07/08 03:51:55;;;;;;;12.40;2.00;;;11.40;99.90;;;;;;4989632;28;20051;-75
2022/07/08 03:54:20;;;;;;;13.95;1.88;;;11.40;99.90;;;;;;4989755;28;20152;-75
2022/07/08 03:56:46;;;;;;;9.23;1.92;;;11.60;99.90;;;;;;4990070;28;20097;-75
2022/07/08 03:59:12;;;;;;;16.85;2.13;;;11.40;99.90;;;;;;4990240;28;20542;-75
2022/07/08 04:01:37;;;;;;;11.27;1.83;;;11.40;99.90;;;;;;4972761;28;20185;-75
2022/07/08 04:04:03;;;;;;;9.40;2.00;;;11.50;99.90;;;;;;4990234;28;20088;-74
2022/07/08 04:06:29;;;;;;;12.77;2.83;;;11.40;99.90;;;;;;4972558;28;20049;-74
2022/07/08 04:08:54;;;;;;;7.88;2.00;;;11.40;99.90;;;;;;4989905;28;20042;-75
2022/07/08 04:11:20;;;;;;;9.98;2.17;;;11.40;99.90;;;;;;4972274;28;20050;-75
2022/07/08 04:13:45;;;;;;;15.88;2.28;;;11.50;99.90;;;;;;4989675;28;20057;-75
2022/07/08 04:16:14;;;;;;;10.43;2.65;;;11.50;99.90;;;;;;4990327;28;20042;-75
2022/07/08 04:18:41;;;;;;;7.88;1.65;;;11.60;99.90;;;;;;4972797;28;20130;-74
2022/07/08 04:21:08;;;;;;;10.23;1.88;;;11.80;99.90;;;;;;4990178;28;20062;-75
2022/07/08 04:23:34;;;;;;;9.75;2.10;;;11.70;99.90;;;;;;4989693;28;20482;-75
2022/07/08 04:25:59;;;;;;;8.60;1.83;;;11.80;99.90;;;;;;4989593;28;20046;-75
2022/07/08 04:28:25;;;;;;;10.57;2.22;;;11.90;99.90;;;;;;4972234;28;20657;-75
2022/07/08 04:30:51;;;;;;;11.98;1.98;;;12.00;99.90;;;;;;4989981;28;20441;-73
2022/07/08 04:33:17;;;;;;;7.57;2.13;;;12.10;99.90;;;;;;4990796;28;20054;-74
2022/07/08 04:35:42;;;;;;;11.05;2.05;;;12.10;99.90;;;;;;4975557;28;20089;-74
2022/07/08 04:38:08;;;;;;;10.50;2.20;;;12.20;99.90;;;;;;4994018;28;20050;-72
2022/07/08 04:40:35;;;;;;;15.43;2.60;;;12.30;99.90;;;;;;4993323;28;20528;-74
2022/07/08 04:43:00;;;;;;;15.68;2.90;;;12.30;99.90;;;;;;4993356;28;20136;-75
2022/07/08 04:45:26;;;;;;;10.82;2.20;;;12.40;99.90;;;;;;4993061;28;20117;-75
2022/07/08 04:47:52;;;;;;;12.57;2.75;;;12.60;99.90;;;;;;4993014;28;20053;-74
2022/07/08 04:50:19;;;;;;;16.80;2.75;;;12.60;99.90;;;;;;4993378;28;20058;-75
2022/07/08 04:52:45;;;;;;;12.90;2.35;;;12.70;99.90;;;;;;4993293;28;20058;-75
2022/07/08 04:55:29;;;;;;;11.73;1.88;;;12.70;99.90;;;;;;4992919;28;20054;-75
2022/07/08 04:58:01;;;;;;;11.65;2.03;;;12.80;99.90;;;;;;4993635;28;20640;-75
2022/07/08 05:00:28;;;;;;;12.90;2.15;;;12.90;99.90;;;;;;4993446;28;20077;-75
2022/07/08 05:02:53;;;;;;;14.57;2.50;;;13.00;99.90;;;;;;4975577;28;20822;-74
2022/07/08 05:05:19;;;;;;;13.02;2.50;;;13.00;99.90;;;;;;4975273;28;20050;-73
2022/07/08 05:07:47;;;;;;;12.05;2.63;;;13.10;99.90;;;;;;4992573;28;20082;-75
2022/07/08 05:10:18;;;;;;;10.95;2.08;;;13.20;99.90;;;;;;4992584;28;20116;-75
2022/07/08 05:12:44;;;;;;;11.68;2.35;;;13.30;99.90;;;;;;4974915;28;20046;-75
2022/07/08 05:15:11;;;;;;;9.38;1.90;;;13.40;99.90;;;;;;4992187;28;20113;-75
2022/07/08 05:17:38;;;;;;;14.07;2.25;;;13.40;99.90;;;;;;4992672;28;20042;-75
2022/07/08 05:20:09;;;;;;;10.85;2.00;;;13.50;99.90;;;;;;4992658;28;20053;-76
2022/07/08 05:22:35;;;;;;;14.10;2.28;;;13.50;99.90;;;;;;4992770;28;20050;-75
2022/07/08 05:25:02;;;;;;;14.95;2.70;;;13.60;99.90;;;;;;4992632;28;20584;-77
2022/07/08 05:27:28;;;;;;;12.95;2.30;;;13.70;99.90;;;;;;4991857;28;20042;-75
2022/07/08 05:29:54;;;;;;;22.77;2.45;;;13.80;99.90;;;;;;4992724;28;20105;-77
2022/07/08 05:32:19;;;;;;;13.15;2.20;;;13.80;99.90;;;;;;4992677;28;20038;-76
2022/07/08 05:34:45;;;;;;;15.88;2.10;;;14.00;99.90;;;;;;4975039;28;20129;-76
2022/07/08 05:37:11;;;;;;;12.70;2.60;;;14.10;99.90;;;;;;4992752;28;20101;-77
2022/07/08 05:39:41;;;;;;;13.50;2.35;;;14.20;99.90;;;;;;4974199;28;20042;-79
2022/07/08 05:42:08;;;;;;;16.98;2.65;;;14.30;99.90;;;;;;4992385;28;20446;-76
2022/07/08 05:44:34;;;;;;;12.07;2.05;;;14.40;99.90;;;;;;4990034;28;20050;-77
2022/07/08 05:47:00;;;;;;;12.00;2.50;;;14.70;99.90;;;;;;4991962;28;20058;-78
2022/07/08 05:49:26;;;;;;;8.23;2.17;;;14.60;99.90;;;;;;4991838;28;20042;-77
2022/07/08 05:51:53;;;;;;;8.75;1.48;;;14.70;99.90;;;;;;4991583;28;20060;-75
2022/07/08 05:54:18;;;;;;;15.95;2.30;;;14.80;99.90;;;;;;4988130;28;20116;-76
2022/07/08 05:56:44;;;;;;;9.15;1.77;;;14.90;99.90;;;;;;4992351;28;20046;-76
2022/07/08 05:59:10;;;;;;;16.65;2.00;;;15.00;99.90;;;;;;4991807;28;20046;-74
2022/07/08 06:01:36;;;;;;;13.73;2.35;;;15.10;99.90;;;;;;4991985;28;20051;-77
2022/07/08 06:04:01;;;;;;;17.00;1.80;;;15.40;99.90;;;;;;4991660;28;20057;-75
2022/07/08 06:06:27;;;;;;;10.02;1.80;;;15.60;99.90;;;;;;4991737;28;20066;-75
2022/07/08 06:08:53;;;;;;;11.98;2.38;;;15.40;99.90;;;;;;4991803;28;20439;-78
2022/07/08 06:11:18;;;;;;;17.38;1.90;;;15.50;99.90;;;;;;4991622;28;20038;-77
2022/07/08 06:13:44;;;;;;;11.35;2.03;;;15.60;99.90;;;;;;4991147;28;20049;-77
2022/07/08 06:16:10;;;;;;;14.77;2.22;;;15.70;99.90;;;;;;4992402;28;20497;-78
2022/07/08 06:18:35;;;;;;;14.73;2.25;;;15.80;99.90;;;;;;4992052;28;20065;-76
2022/07/08 06:21:01;;;;;;;12.07;1.83;;;16.00;99.90;;;;;;4973953;28;20163;-77
2022/07/08 06:23:27;;;;;;;20.23;2.90;;;16.10;99.90;;;;;;4973809;28;20058;-76
2022/07/08 06:25:52;;;;;;;13.70;2.35;;;16.00;99.90;;;;;;4990957;28;20042;-74
2022/07/08 06:28:18;;;;;;;14.07;2.72;;;16.00;99.90;;;;;;4990245;28;20039;-75
2022/07/08 06:30:46;;;;;;;13.82;2.30;;;16.10;99.90;;;;;;4990476;28;20481;-77
2022/07/08 06:33:12;;;;;;;11.77;1.98;;;16.10;99.90;;;;;;4983668;28;20468;-75
2022/07/08 06:35:38;;;;;;;11.80;1.80;;;16.10;99.90;;;;;;4991277;28;20086;-76
2022/07/08 06:38:03;;;;;;;14.40;2.50;;;16.20;99.90;;;;;;4991261;28;20061;-75
2022/07/08 06:40:29;;;;;;;13.35;2.78;;;16.20;99.90;;;;;;4979176;28;20401;-74
2022/07/08 06:42:55;;;;;;;11.98;1.80;;;16.30;99.90;;;;;;4963093;28;20478;-77
2022/07/08 06:45:20;;;;;;;15.75;1.88;;;16.30;99.90;;;;;;4972031;28;20043;-76
2022/07/08 06:47:46;;;;;;;14.18;2.88;;;16.30;99.90;;;;;;4989618;28;20571;-75
2022/07/08 06:50:12;;;;;;;11.88;2.00;;;16.40;99.90;;;;;;4973384;28;20074;-77
2022/07/08 06:52:38;;;;;;;16.85;2.80;;;16.50;99.90;;;;;;4973449;28;20054;-75
2022/07/08 06:55:04;;;;;;;11.68;2.70;;;16.60;99.90;;;;;;4990583;28;20117;-74
2022/07/08 06:57:30;;;;;;;13.82;2.05;;;16.70;99.90;;;;;;4990579;28;20054;-77
2022/07/08 06:59:56;;;;;;;14.60;2.65;;;16.80;99.90;;;;;;4990212;28;20054;-75
2022/07/08 07:02:24;;;;;;;14.38;2.20;;;16.80;99.90;;;;;;4990302;28;20048;-78
2022/07/08 07:04:50;;;;;;;16.70;2.15;;;17.10;99.90;;;;;;4990176;28;20042;-76
2022/07/08 07:07:16;;;;;;;14.45;2.70;;;17.00;99.90;;;;;;4983378;28;20050;-76
2022/07/08 07:09:42;;;;;;;10.57;2.47;;;17.80;99.90;;;;;;4971429;28;20050;-76
2022/07/08 07:12:09;;;;;;;13.45;3.70;;;17.20;99.90;;;;;;4984986;28;20744;-75
2022/07/08 07:14:35;;;;;;;12.00;3.83;;;17.30;99.90;;;;;;4990679;28;20165;-73
2022/07/08 07:17:01;;;;;;;10.68;2.22;;;17.50;99.90;;;;;;4990426;28;20263;-75
2022/07/08 07:19:28;;;;;;;9.40;1.70;;;17.60;99.90;;;;;;5005836;28;20065;-74
2022/07/08 07:21:54;;;;;;;9.80;2.17;;;17.70;99.90;;;;;;4990765;28;20112;-75
2022/07/08 07:24:21;;;;;;;11.38;1.88;;;17.90;99.90;;;;;;4972784;28;20085;-76
2022/07/08 07:26:49;;;;;;;15.77;2.30;;;18.00;99.90;;;;;;4989892;28;20420;-75
2022/07/08 07:29:15;;;;;;;11.75;1.92;;;18.10;99.90;;;;;;4990715;28;20141;-75
2022/07/08 07:31:41;;;;;;;11.00;1.88;;;18.20;99.90;;;;;;4989964;28;20038;-76
2022/07/08 07:34:07;;;;;;;8.10;1.90;;;18.30;99.90;;;;;;4989945;28;20057;-76
2022/07/08 07:36:33;;;;;;;16.58;1.83;;;18.30;99.90;;;;;;4990541;28;20077;-75
2022/07/08 07:38:58;;;;;;;15.35;2.40;;;18.50;99.90;;;;;;4990493;28;20077;-75
2022/07/08 07:41:24;;;;;;;15.30;1.85;;;18.50;99.90;;;;;;4989906;28;20046;-77
2022/07/08 07:43:50;;;;;;;13.95;1.67;;;18.60;99.90;;;;;;4988637;28;20061;-78
2022/07/08 07:46:16;;;;;;;12.82;2.00;;;18.70;99.90;;;;;;4990448;28;20501;-75
2022/07/08 07:48:41;;;;;;;10.27;1.65;;;18.80;99.90;;;;;;4972917;28;20046;-75
2022/07/08 07:51:07;;;;;;;13.90;1.95;;;18.90;99.90;;;;;;4990199;28;20482;-76
2022/07/08 07:53:33;;;;;;;14.75;2.38;;;19.00;99.90;;;;;;4990336;28;20378;-75
2022/07/08 07:55:59;;;;;;;12.52;1.85;;;19.00;99.90;;;;;;4990259;28;20096;-75
2022/07/08 07:58:25;;;;;;;19.10;3.35;;;19.10;99.90;;;;;;4956562;28;20070;-76
2022/07/08 08:00:51;;;;;;;10.55;2.78;;;19.20;99.90;;;;;;4990363;28;20118;-76
2022/07/08 08:03:18;;;;;;;19.38;3.00;;;19.30;99.90;;;;;;4972903;28;20388;-77
2022/07/08 08:05:44;;;;;;;14.13;2.40;;;19.40;99.90;;;;;;4990675;28;20046;-77
2022/07/08 08:08:10;;;;;;;9.00;1.88;;;19.40;99.90;;;;;;4991114;28;20389;-76
2022/07/08 08:10:36;;;;;;;11.50;1.60;;;19.60;99.90;;;;;;4994202;28;20069;-77
2022/07/08 08:13:02;;;;;;;11.60;2.22;;;19.60;99.90;;;;;;4993964;28;20074;-77
2022/07/08 08:15:29;;;;;;;11.18;1.90;;;19.70;99.90;;;;;;4993812;28;20462;-75
2022/07/08 08:17:57;;;;;;;13.82;1.67;;;19.70;99.90;;;;;;4993747;28;20831;-76
2022/07/08 08:20:28;;;;;;;12.48;2.00;;;19.60;99.90;;;;;;4993400;28;20053;-75
2022/07/08 08:22:54;;;;;;;8.32;1.60;;;19.70;99.90;;;;;;4993311;28;20521;-75
2022/07/08 08:25:20;;;;;;;8.43;1.80;;;19.70;99.90;;;;;;4994033;28;20070;-75
2022/07/08 08:27:47;;;;;;;9.27;2.28;;;19.70;99.90;;;;;;4993621;28;20105;-77
2022/07/08 08:30:19;;;;;;;7.63;1.83;;;19.70;99.90;;;;;;4994046;28;20042;-75
2022/07/08 08:32:47;;;;;;;10.85;1.67;;;19.60;99.90;;;;;;4959101;28;20049;-78
2022/07/08 08:35:13;;;;;;;9.52;1.58;;;19.60;99.90;;;;;;4993219;28;20046;-75
2022/07/08 08:37:39;;;;;;;9.73;1.67;;;19.50;99.90;;;;;;4993850;28;20090;-76
2022/07/08 08:40:07;;;;;;;8.25;1.33;;;19.50;99.90;;;;;;4976540;28;20090;-76
2022/07/08 08:42:33;;;;;;;11.48;2.03;;;19.40;99.90;;;;;;4993521;28;20502;-78
2022/07/08 08:44:59;;;;;;;8.98;1.27;;;19.40;99.90;;;;;;4994134;28;20100;-79
2022/07/08 08:47:36;;;;;;;9.20;1.58;;;19.30;99.90;;;;;;4993684;28;20092;-79
2022/07/08 08:52:50;;;;;;;11.02;1.70;;;19.40;99.90;;;;;;4992958;28;20410;-73
2022/07/08 08:55:31;;;;;;;5.93;1.60;;;19.60;99.90;;;;;;4993469;28;20057;-74
2022/07/08 08:57:58;;;;;;;8.18;1.50;;;19.60;99.90;;;;;;4975918;28;20042;-75
2022/07/08 09:00:26;;;;;;;6.60;1.58;;;19.70;99.90;;;;;;4992779;28;20380;-75
2022/07/08 09:02:53;;;;;;;11.23;1.52;;;19.80;99.90;;;;;;4993227;28;20085;-78
2022/07/08 09:05:21;;;;;;;8.80;1.73;;;19.80;99.90;;;;;;4992610;28;20121;-77
2022/07/08 09:07:47;;;;;;;8.18;1.80;;;19.70;99.90;;;;;;4993082;28;20046;-76
2022/07/08 09:10:15;;;;;;;8.20;1.55;;;19.80;99.90;;;;;;4993277;28;20145;-78
2022/07/08 09:13:08;;;;;;;10.43;2.88;;;19.80;99.90;;;;;;4992625;28;20057;-78
2022/07/08 09:15:45;;;;;;;8.63;1.50;;;19.80;99.90;;;;;;4992837;28;20042;-78
2022/07/08 09:18:14;;;;;;;7.15;1.70;;;19.90;99.90;;;;;;4992915;28;20050;-80
2022/07/08 09:20:46;;;;;;;10.82;1.58;;;19.80;99.90;;;;;;4992458;28;20054;-78
2022/07/08 09:23:32;;;;;;;7.28;1.48;;;19.90;99.90;;;;;;4993001;28;20532;-78
2022/07/08 09:26:05;;;;;;;8.50;1.80;;;19.90;99.90;;;;;;4992021;28;20145;-78
2022/07/08 09:28:58;;;;;;;8.73;1.70;;;20.00;99.90;;;;;;4992487;28;20137;-76
2022/07/08 09:31:33;;;;;;;8.68;1.83;;;20.20;99.90;;;;;;4990560;28;20089;-78
2022/07/08 09:34:05;;;;;;;10.05;1.70;;;20.30;99.90;;;;;;4992835;28;20120;-75
2022/07/08 09:36:45;;;;;;;8.02;1.90;;;20.50;99.90;;;;;;4992297;28;20181;-76
2022/07/08 09:39:31;;;;;;;12.77;2.08;;;20.50;99.90;;;;;;4992549;28;20042;-76
2022/07/08 09:41:57;;;;;;;13.30;1.70;;;20.50;99.90;;;;;;4974592;28;20049;-76
2022/07/08 09:44:23;;;;;;;12.80;2.25;;;20.50;99.90;;;;;;4974952;28;20515;-79
2022/07/08 09:46:49;;;;;;;8.63;1.85;;;20.50;99.90;;;;;;4992309;28;20034;-78
2022/07/08 09:49:32;;;;;;;8.10;1.60;;;20.50;99.90;;;;;;4992354;28;20050;-76
2022/07/08 09:51:59;;;;;;;9.15;2.15;;;20.50;99.90;;;;;;4991684;28;20058;-80
2022/07/08 09:54:27;;;;;;;10.50;1.88;;;20.40;99.90;;;;;;4992376;28;20055;-79
2022/07/08 09:57:13;;;;;;;7.65;1.92;;;20.40;99.90;;;;;;4992210;28;20070;-77
2022/07/08 09:59:42;;;;;;;6.97;1.65;;;20.50;99.90;;;;;;4992220;28;20046;-78
2022/07/08 10:02:08;;;;;;;6.28;1.45;;;20.50;99.90;;;;;;4991625;28;20078;-78
2022/07/08 10:04:34;;;;;;;7.07;1.52;;;20.40;99.90;;;;;;4992296;28;20047;-78
2022/07/08 10:06:59;;;;;;;9.50;1.50;;;20.60;99.90;;;;;;4991968;28;20057;-78
2022/07/08 10:09:26;;;;;;;9.10;1.98;;;20.60;99.90;;;;;;4991593;28;20058;-79
2022/07/08 10:11:53;;;;;;;8.23;1.80;;;20.60;99.90;;;;;;4991789;28;20050;-86
2022/07/08 10:14:19;;;;;;;8.50;1.80;;;20.60;99.90;;;;;;4958277;28;20493;-77
2022/07/08 10:16:46;;;;;;;8.27;1.73;;;20.60;99.90;;;;;;4991897;28;20050;-77
2022/07/08 10:19:24;;;;;;;10.90;1.60;;;20.70;99.90;;;;;;4992372;28;20382;-77
2022/07/08 10:21:53;;;;;;;9.40;1.88;;;20.70;99.90;;;;;;4991149;28;20421;-75
2022/07/08 10:24:25;;;;;;;7.03;1.85;;;20.70;99.90;;;;;;4973520;28;20049;-76
2022/07/08 10:26:51;;;;;;;8.80;1.63;;;20.80;99.90;;;;;;4991145;28;20042;-82
2022/07/08 10:29:27;;;;;;;9.05;1.98;;;20.90;99.90;;;;;;4991129;28;20046;-80
2022/07/08 10:31:53;;;;;;;6.43;1.70;;;21.00;99.90;;;;;;4990269;28;20117;-80
2022/07/08 10:34:21;;;;;;;8.45;1.55;;;21.00;99.90;;;;;;4991214;28;20544;-78
2022/07/08 10:36:51;;;;;;;6.45;1.50;;;20.90;99.90;;;;;;4990904;28;20057;-77
2022/07/08 10:39:36;;;;;;;9.45;1.60;;;21.00;99.90;;;;;;4990897;28;20180;-78
2022/07/08 10:42:03;;;;;;;9.63;1.90;;;21.00;99.90;;;;;;4974012;28;20057;-81
2022/07/08 10:44:44;;;;;;;9.20;1.73;;;20.90;99.90;;;;;;4991444;28;20046;-79
2022/07/08 10:47:16;;;;;;;11.57;2.08;;;20.90;99.90;;;;;;4990638;28;20057;-80
2022/07/08 10:49:43;;;;;;;9.20;1.92;;;20.90;99.90;;;;;;4991196;28;20054;-79
2022/07/08 10:52:09;;;;;;;8.32;1.70;;;21.00;99.90;;;;;;4990690;28;20058;-80
2022/07/08 10:54:37;;;;;;;10.50;2.05;;;21.10;99.90;;;;;;4989822;28;20506;-83
2022/07/08 10:57:16;;;;;;;9.73;1.95;;;21.20;99.90;;;;;;4973847;28;20080;-81
2022/07/08 11:00:02;;;;;;;7.07;1.48;;;21.40;99.90;;;;;;4991158;28;20116;-86
2022/07/08 11:02:28;;;;;;;8.10;2.33;;;21.50;99.90;;;;;;4991098;28;20050;-84
2022/07/08 11:04:54;;;;;;;9.15;1.65;;;21.70;99.90;;;;;;4990627;28;20049;-85
2022/07/08 11:07:26;;;;;;;7.55;1.65;;;21.90;99.90;;;;;;4990633;28;20038;-78
2022/07/08 11:10:13;;;;;;;7.60;1.85;;;22.00;99.90;;;;;;4990777;28;20054;-81
2022/07/08 11:12:46;;;;;;;9.77;1.83;;;21.90;99.90;;;;;;4990829;28;20100;-77
2022/07/08 11:15:13;;;;;;;7.97;1.60;;;22.10;99.90;;;;;;4990362;28;20133;-78
2022/07/08 11:17:41;;;;;;;5.57;1.50;;;22.20;99.90;;;;;;4990492;28;20050;-82
2022/07/08 11:20:12;;;;;;;7.40;1.50;;;22.30;99.90;;;;;;4990808;28;20133;-78
2022/07/08 11:22:39;;;;;;;11.65;2.03;;;22.50;99.90;;;;;;4990735;28;20050;-83
2022/07/08 11:25:08;;;;;;;6.43;1.63;;;22.60;99.90;;;;;;4990148;28;20233;-82
2022/07/08 11:27:34;;;;;;;4.78;1.77;;;22.70;99.90;;;;;;4990457;28;20390;-81
2022/07/08 11:30:04;;;;;;;8.18;1.58;;;22.60;99.90;;;;;;4990604;28;20498;-83
2022/07/08 11:32:30;;;;;;;9.98;1.80;;;22.60;99.90;;;;;;4973213;28;20072;-88
2022/07/08 11:34:56;;;;;;;8.18;2.03;;;22.50;99.90;;;;;;4973251;28;20137;-79
2022/07/08 11:37:22;;;;;;;9.32;2.00;;;22.60;99.90;;;;;;4973467;28;20156;-85
2022/07/08 11:39:49;;;;;;;12.07;2.22;;;22.50;99.90;;;;;;4972877;28;20038;-80
2022/07/08 11:42:16;;;;;;;8.60;2.10;;;22.50;99.90;;;;;;4990115;28;20486;-83
2022/07/08 11:44:43;;;;;;;8.25;1.90;;;22.60;99.90;;;;;;4976568;28;20038;-81
2022/07/08 11:47:15;;;;;;;8.07;2.17;;;22.80;99.90;;;;;;4976885;28;20096;-80
2022/07/08 11:49:43;;;;;;;9.48;2.38;;;23.00;99.90;;;;;;4994178;28;20048;-82
2022/07/08 11:52:09;;;;;;;7.55;2.15;;;23.00;99.90;;;;;;4992973;28;20803;-79
2022/07/08 11:54:35;;;;;;;8.80;2.42;;;22.90;99.90;;;;;;4994265;28;20279;-80
2022/07/08 11:57:02;;;;;;;10.20;2.40;;;23.10;99.90;;;;;;4976006;28;20409;-80
2022/07/08 11:59:33;;;;;;;11.95;3.05;;;23.30;99.90;;;;;;4976593;28;20054;-84
2022/07/08 12:02:00;;;;;;;8.40;2.28;;;23.00;99.90;;;;;;4994133;28;20050;-77
2022/07/08 12:04:26;;;;;;;10.63;2.42;;;23.30;99.90;;;;;;4994073;28;20054;-82
2022/07/08 12:06:54;;;;;;;9.80;2.35;;;23.50;99.90;;;;;;4976888;28;20497;-83
2022/07/08 12:09:21;;;;;;;11.05;2.40;;;23.50;99.90;;;;;;4993740;28;20058;-88
2022/07/08 12:12:11;;;;;;;7.65;2.28;;;23.50;99.90;;;;;;4993909;28;20046;-82
2022/07/08 12:14:37;;;;;;;8.80;1.95;;;23.50;99.90;;;;;;4932984;29;20075;-83
2022/07/08 12:17:09;;;;;;;11.75;2.50;;;23.50;99.90;;;;;;4933374;29;20535;-81
2022/07/08 12:19:37;;;;;;;10.00;2.10;;;23.40;99.90;;;;;;4933305;29;20422;-80
2022/07/08 12:22:06;;;;;;;10.13;2.35;;;23.30;99.90;;;;;;4933172;29;20047;-85
2022/07/08 12:24:33;;;;;;;10.27;2.70;;;23.20;99.90;;;;;;4933568;29;20162;-84
2022/07/08 12:27:01;;;;;;;12.75;2.42;;;23.10;99.90;;;;;;4933291;29;20047;-80
2022/07/08 12:29:28;;;;;;;8.15;1.88;;;23.30;99.90;;;;;;4932713;29;20056;-79
2022/07/08 12:31:54;;;;;;;11.93;2.10;;;23.50;99.90;;;;;;4933278;29;20131;-83
2022/07/08 12:34:22;;;;;;;7.57;2.08;;;23.80;99.90;;;;;;4917244;29;20064;-85
2022/07/08 12:36:48;;;;;;;9.65;2.17;;;24.00;99.90;;;;;;4933429;29;20462;-82
2022/07/08 12:39:16;;;;;;;13.15;2.63;;;24.00;99.90;;;;;;4933023;29;20058;-80
2022/07/08 12:41:45;;;;;;;16.70;2.55;;;24.00;99.90;;;;;;4917251;29;20056;-81
2022/07/08 12:44:40;;;;;;;9.43;2.20;;;24.20;99.90;;;;;;4934820;28;20056;-84
2022/07/08 12:47:12;;;;;;;;;;;24.00;99.90;;;;;;4993836;28;20057;-85
2022/07/08 12:49:40;;;;;;;14.25;2.45;;;24.00;99.90;;;;;;4993445;28;20451;-80